sensor_id;sensor_type;location;lat;lon;timestamp;P1;durP1;ratioP1;P2;durP2;ratioP2
38940;SDS011;43236;47.208;7.518;2022-11-12T00:00:56;38.10;;;15.73;;
38940;SDS011;43236;47.208;7.518;2022-11-12T00:03:45;39.95;;;16.65;;
38940;SDS011;43236;47.208;7.518;2022-11-12T00:06:32;39.92;;;15.55;;
38940;SDS011;43236;47.208;7.518;2022-11-12T00:09:20;40.75;;;16.77;;
38940;SDS011;43236;47.208;7.518;2022-11-12T00:12:07;42.60;;;16.95;;
38940;SDS011;43236;47.208;7.518;2022-11-12T00:14:54;44.03;;;17.63;;
38940;SDS011;43236;47.208;7.518;2022-11-12T00:17:41;45.97;;;18.15;;
38940;SDS011;43236;47.208;7.518;2022-11-12T00:20:29;48.35;;;18.42;;
38940;SDS011;43236;47.208;7.518;2022-11-12T00:23:17;47.70;;;18.90;;
38940;SDS011;43236;47.208;7.518;2022-11-12T00:26:04;40.05;;;17.90;;
38940;SDS011;43236;47.208;7.518;2022-11-12T00:28:51;46.00;;;18.25;;
38940;SDS011;43236;47.208;7.518;2022-11-12T00:31:38;41.63;;;19.00;;
38940;SDS011;43236;47.208;7.518;2022-11-12T00:34:25;44.50;;;17.58;;
38940;SDS011;43236;47.208;7.518;2022-11-12T00:37:13;43.83;;;17.33;;
38940;SDS011;43236;47.208;7.518;2022-11-12T00:40:01;42.42;;;18.08;;
38940;SDS011;43236;47.208;7.518;2022-11-12T00:42:49;45.78;;;17.98;;
38940;SDS011;43236;47.208;7.518;2022-11-12T00:45:37;42.95;;;16.92;;
38940;SDS011;43236;47.208;7.518;2022-11-12T00:48:24;36.05;;;16.60;;
38940;SDS011;43236;47.208;7.518;2022-11-12T00:51:11;39.47;;;19.05;;
38940;SDS011;43236;47.208;7.518;2022-11-12T00:53:59;36.97;;;18.20;;
38940;SDS011;43236;47.208;7.518;2022-11-12T00:56:47;37.53;;;17.55;;
38940;SDS011;43236;47.208;7.518;2022-11-12T00:59:34;35.30;;;17.27;;
38940;SDS011;43236;47.208;7.518;2022-11-12T01:02:21;37.97;;;17.50;;
38940;SDS011;43236;47.208;7.518;2022-11-12T01:05:09;36.85;;;16.90;;
38940;SDS011;43236;47.208;7.518;2022-11-12T01:07:56;35.80;;;16.08;;
38940;SDS011;43236;47.208;7.518;2022-11-12T01:10:44;34.13;;;16.63;;
38940;SDS011;43236;47.208;7.518;2022-11-12T01:13:32;34.10;;;15.52;;
38940;SDS011;43236;47.208;7.518;2022-11-12T01:16:20;33.65;;;15.05;;
38940;SDS011;43236;47.208;7.518;2022-11-12T01:19:09;35.03;;;16.42;;
38940;SDS011;43236;47.208;7.518;2022-11-12T01:21:57;32.20;;;15.23;;
38940;SDS011;43236;47.208;7.518;2022-11-12T01:24:44;29.15;;;15.15;;
38940;SDS011;43236;47.208;7.518;2022-11-12T01:27:33;37.40;;;16.40;;
38940;SDS011;43236;47.208;7.518;2022-11-12T01:30:20;38.30;;;17.35;;
38940;SDS011;43236;47.208;7.518;2022-11-12T01:33:07;33.45;;;17.48;;
38940;SDS011;43236;47.208;7.518;2022-11-12T01:35:57;38.15;;;16.98;;
38940;SDS011;43236;47.208;7.518;2022-11-12T01:38:44;39.10;;;17.05;;
38940;SDS011;43236;47.208;7.518;2022-11-12T01:41:34;34.35;;;17.35;;
38940;SDS011;43236;47.208;7.518;2022-11-12T01:44:24;37.13;;;17.00;;
38940;SDS011;43236;47.208;7.518;2022-11-12T01:47:16;38.40;;;17.58;;
38940;SDS011;43236;47.208;7.518;2022-11-12T01:50:10;34.83;;;17.75;;
38940;SDS011;43236;47.208;7.518;2022-11-12T01:53:02;38.63;;;17.92;;
38940;SDS011;43236;47.208;7.518;2022-11-12T01:55:53;47.55;;;16.90;;
38940;SDS011;43236;47.208;7.518;2022-11-12T01:58:41;40.45;;;16.58;;
38940;SDS011;43236;47.208;7.518;2022-11-12T02:01:33;39.08;;;16.60;;
38940;SDS011;43236;47.208;7.518;2022-11-12T02:04:22;42.92;;;18.17;;
38940;SDS011;43236;47.208;7.518;2022-11-12T02:07:10;35.17;;;17.17;;
38940;SDS011;43236;47.208;7.518;2022-11-12T02:09:59;33.13;;;15.50;;
38940;SDS011;43236;47.208;7.518;2022-11-12T02:12:47;28.85;;;15.10;;
38940;SDS011;43236;47.208;7.518;2022-11-12T02:15:54;30.27;;;15.77;;
38940;SDS011;43236;47.208;7.518;2022-11-12T02:18:43;30.92;;;15.02;;
38940;SDS011;43236;47.208;7.518;2022-11-12T02:21:31;29.80;;;15.13;;
38940;SDS011;43236;47.208;7.518;2022-11-12T02:24:34;30.58;;;14.80;;
38940;SDS011;43236;47.208;7.518;2022-11-12T02:27:24;28.13;;;14.88;;
38940;SDS011;43236;47.208;7.518;2022-11-12T02:30:12;29.90;;;14.63;;
38940;SDS011;43236;47.208;7.518;2022-11-12T02:32:59;29.00;;;14.70;;
38940;SDS011;43236;47.208;7.518;2022-11-12T02:35:48;33.40;;;14.90;;
38940;SDS011;43236;47.208;7.518;2022-11-12T02:38:36;30.88;;;15.13;;
38940;SDS011;43236;47.208;7.518;2022-11-12T02:41:23;29.08;;;14.10;;
38940;SDS011;43236;47.208;7.518;2022-11-12T02:44:10;29.85;;;14.60;;
38940;SDS011;43236;47.208;7.518;2022-11-12T02:46:57;30.58;;;15.65;;
38940;SDS011;43236;47.208;7.518;2022-11-12T02:49:45;29.80;;;15.30;;
38940;SDS011;43236;47.208;7.518;2022-11-12T02:52:32;31.90;;;14.80;;
38940;SDS011;43236;47.208;7.518;2022-11-12T02:55:20;28.70;;;14.10;;
38940;SDS011;43236;47.208;7.518;2022-11-12T02:58:07;31.30;;;14.10;;
38940;SDS011;43236;47.208;7.518;2022-11-12T03:00:55;32.10;;;13.98;;
38940;SDS011;43236;47.208;7.518;2022-11-12T03:03:42;26.92;;;13.35;;
38940;SDS011;43236;47.208;7.518;2022-11-12T03:06:29;30.63;;;13.48;;
38940;SDS011;43236;47.208;7.518;2022-11-12T03:09:16;25.77;;;13.23;;
38940;SDS011;43236;47.208;7.518;2022-11-12T03:12:05;26.23;;;12.95;;
38940;SDS011;43236;47.208;7.518;2022-11-12T03:14:52;32.97;;;13.90;;
38940;SDS011;43236;47.208;7.518;2022-11-12T03:17:39;28.20;;;13.75;;
38940;SDS011;43236;47.208;7.518;2022-11-12T03:20:27;30.92;;;14.38;;
38940;SDS011;43236;47.208;7.518;2022-11-12T03:23:14;26.15;;;12.55;;
38940;SDS011;43236;47.208;7.518;2022-11-12T03:26:02;25.98;;;12.82;;
38940;SDS011;43236;47.208;7.518;2022-11-12T03:28:51;26.77;;;13.13;;
38940;SDS011;43236;47.208;7.518;2022-11-12T03:31:38;30.67;;;13.70;;
38940;SDS011;43236;47.208;7.518;2022-11-12T03:34:25;30.63;;;13.75;;
38940;SDS011;43236;47.208;7.518;2022-11-12T03:37:13;25.05;;;12.52;;
38940;SDS011;43236;47.208;7.518;2022-11-12T03:40:00;27.25;;;12.93;;
38940;SDS011;43236;47.208;7.518;2022-11-12T03:42:48;30.40;;;13.48;;
38940;SDS011;43236;47.208;7.518;2022-11-12T03:45:38;31.58;;;12.63;;
38940;SDS011;43236;47.208;7.518;2022-11-12T03:48:25;27.40;;;13.05;;
38940;SDS011;43236;47.208;7.518;2022-11-12T03:51:12;26.48;;;13.07;;
38940;SDS011;43236;47.208;7.518;2022-11-12T03:54:00;28.50;;;13.80;;
38940;SDS011;43236;47.208;7.518;2022-11-12T03:56:47;24.10;;;11.88;;
38940;SDS011;43236;47.208;7.518;2022-11-12T03:59:34;25.15;;;11.85;;
38940;SDS011;43236;47.208;7.518;2022-11-12T04:02:23;26.88;;;11.75;;
38940;SDS011;43236;47.208;7.518;2022-11-12T04:05:11;25.23;;;12.23;;
38940;SDS011;43236;47.208;7.518;2022-11-12T04:11:23;23.98;;;11.32;;
38940;SDS011;43236;47.208;7.518;2022-11-12T04:14:10;33.15;;;12.57;;
38940;SDS011;43236;47.208;7.518;2022-11-12T04:16:57;26.92;;;12.25;;
38940;SDS011;43236;47.208;7.518;2022-11-12T04:20:04;28.13;;;11.35;;
38940;SDS011;43236;47.208;7.518;2022-11-12T04:23:09;26.25;;;12.80;;
38940;SDS011;43236;47.208;7.518;2022-11-12T04:25:56;23.88;;;12.15;;
38940;SDS011;43236;47.208;7.518;2022-11-12T04:32:05;25.35;;;11.77;;
38940;SDS011;43236;47.208;7.518;2022-11-12T04:34:53;24.20;;;10.88;;
38940;SDS011;43236;47.208;7.518;2022-11-12T04:37:42;25.23;;;11.70;;
38940;SDS011;43236;47.208;7.518;2022-11-12T04:40:32;25.35;;;11.45;;
38940;SDS011;43236;47.208;7.518;2022-11-12T04:46:41;21.50;;;10.52;;
38940;SDS011;43236;47.208;7.518;2022-11-12T04:49:28;20.05;;;10.82;;
38940;SDS011;43236;47.208;7.518;2022-11-12T04:52:15;20.63;;;10.05;;
38940;SDS011;43236;47.208;7.518;2022-11-12T04:55:04;21.67;;;10.40;;
38940;SDS011;43236;47.208;7.518;2022-11-12T04:57:51;19.63;;;10.00;;
38940;SDS011;43236;47.208;7.518;2022-11-12T05:00:39;21.27;;;10.15;;
38940;SDS011;43236;47.208;7.518;2022-11-12T05:03:26;22.77;;;9.95;;
38940;SDS011;43236;47.208;7.518;2022-11-12T05:06:13;21.48;;;10.00;;
38940;SDS011;43236;47.208;7.518;2022-11-12T05:09:14;24.35;;;10.15;;
38940;SDS011;43236;47.208;7.518;2022-11-12T05:12:02;21.27;;;10.93;;
38940;SDS011;43236;47.208;7.518;2022-11-12T05:14:53;18.90;;;9.52;;
38940;SDS011;43236;47.208;7.518;2022-11-12T05:17:43;22.80;;;10.52;;
38940;SDS011;43236;47.208;7.518;2022-11-12T05:20:30;18.88;;;10.05;;
38940;SDS011;43236;47.208;7.518;2022-11-12T05:23:17;20.92;;;10.02;;
38940;SDS011;43236;47.208;7.518;2022-11-12T05:26:04;17.92;;;9.55;;
38940;SDS011;43236;47.208;7.518;2022-11-12T05:28:53;25.77;;;10.68;;
38940;SDS011;43236;47.208;7.518;2022-11-12T05:31:40;20.90;;;10.85;;
38940;SDS011;43236;47.208;7.518;2022-11-12T05:34:27;25.42;;;10.38;;
38940;SDS011;43236;47.208;7.518;2022-11-12T05:37:14;20.38;;;10.55;;
38940;SDS011;43236;47.208;7.518;2022-11-12T05:40:02;23.80;;;11.40;;
38940;SDS011;43236;47.208;7.518;2022-11-12T05:42:49;23.88;;;11.77;;
38940;SDS011;43236;47.208;7.518;2022-11-12T05:45:40;26.98;;;12.90;;
38940;SDS011;43236;47.208;7.518;2022-11-12T05:48:28;24.90;;;11.73;;
38940;SDS011;43236;47.208;7.518;2022-11-12T05:51:15;24.23;;;10.73;;
38940;SDS011;43236;47.208;7.518;2022-11-12T05:54:02;25.95;;;11.48;;
38940;SDS011;43236;47.208;7.518;2022-11-12T05:56:50;21.90;;;10.65;;
38940;SDS011;43236;47.208;7.518;2022-11-12T05:59:37;32.25;;;11.77;;
38940;SDS011;43236;47.208;7.518;2022-11-12T06:02:26;25.08;;;11.05;;
38940;SDS011;43236;47.208;7.518;2022-11-12T06:05:13;24.35;;;11.40;;
38940;SDS011;43236;47.208;7.518;2022-11-12T06:08:00;24.42;;;12.27;;
38940;SDS011;43236;47.208;7.518;2022-11-12T06:10:48;26.70;;;12.23;;
38940;SDS011;43236;47.208;7.518;2022-11-12T06:13:36;28.90;;;12.15;;
38940;SDS011;43236;47.208;7.518;2022-11-12T06:16:23;27.30;;;12.18;;
38940;SDS011;43236;47.208;7.518;2022-11-12T06:19:12;31.70;;;12.18;;
38940;SDS011;43236;47.208;7.518;2022-11-12T06:21:59;26.10;;;13.35;;
38940;SDS011;43236;47.208;7.518;2022-11-12T06:24:46;28.17;;;13.20;;
38940;SDS011;43236;47.208;7.518;2022-11-12T06:27:33;33.13;;;10.80;;
38940;SDS011;43236;47.208;7.518;2022-11-12T06:30:22;33.05;;;11.63;;
38940;SDS011;43236;47.208;7.518;2022-11-12T06:33:11;23.55;;;11.45;;
38940;SDS011;43236;47.208;7.518;2022-11-12T06:36:00;27.52;;;11.50;;
38940;SDS011;43236;47.208;7.518;2022-11-12T06:38:51;42.03;;;12.88;;
38940;SDS011;43236;47.208;7.518;2022-11-12T06:41:38;24.08;;;12.40;;
38940;SDS011;43236;47.208;7.518;2022-11-12T06:44:25;30.50;;;12.40;;
38940;SDS011;43236;47.208;7.518;2022-11-12T06:47:13;28.45;;;11.85;;
38940;SDS011;43236;47.208;7.518;2022-11-12T06:50:00;26.85;;;12.95;;
38940;SDS011;43236;47.208;7.518;2022-11-12T06:52:49;23.13;;;12.73;;
38940;SDS011;43236;47.208;7.518;2022-11-12T06:55:36;25.38;;;13.02;;
38940;SDS011;43236;47.208;7.518;2022-11-12T06:58:23;26.92;;;12.05;;
38940;SDS011;43236;47.208;7.518;2022-11-12T07:01:11;26.65;;;12.52;;
38940;SDS011;43236;47.208;7.518;2022-11-12T07:03:59;29.52;;;13.02;;
38940;SDS011;43236;47.208;7.518;2022-11-12T07:06:46;26.55;;;12.95;;
38940;SDS011;43236;47.208;7.518;2022-11-12T07:09:36;25.13;;;12.85;;
38940;SDS011;43236;47.208;7.518;2022-11-12T07:12:24;20.95;;;11.10;;
38940;SDS011;43236;47.208;7.518;2022-11-12T07:15:11;23.10;;;12.18;;
38940;SDS011;43236;47.208;7.518;2022-11-12T07:18:01;24.75;;;11.02;;
38940;SDS011;43236;47.208;7.518;2022-11-12T07:20:48;18.67;;;10.65;;
38940;SDS011;43236;47.208;7.518;2022-11-12T07:23:35;21.08;;;10.55;;
38940;SDS011;43236;47.208;7.518;2022-11-12T07:26:24;23.98;;;11.43;;
38940;SDS011;43236;47.208;7.518;2022-11-12T07:29:12;24.55;;;11.15;;
38940;SDS011;43236;47.208;7.518;2022-11-12T07:31:59;22.75;;;10.80;;
38940;SDS011;43236;47.208;7.518;2022-11-12T07:34:47;24.35;;;10.25;;
38940;SDS011;43236;47.208;7.518;2022-11-12T07:37:34;18.70;;;10.02;;
38940;SDS011;43236;47.208;7.518;2022-11-12T07:40:21;25.13;;;10.20;;
38940;SDS011;43236;47.208;7.518;2022-11-12T07:43:10;24.70;;;10.85;;
38940;SDS011;43236;47.208;7.518;2022-11-12T07:45:57;23.77;;;12.25;;
38940;SDS011;43236;47.208;7.518;2022-11-12T07:48:45;26.20;;;12.73;;
38940;SDS011;43236;47.208;7.518;2022-11-12T07:51:32;23.70;;;12.75;;
38940;SDS011;43236;47.208;7.518;2022-11-12T07:54:19;27.40;;;11.82;;
38940;SDS011;43236;47.208;7.518;2022-11-12T07:57:06;24.95;;;11.75;;
38940;SDS011;43236;47.208;7.518;2022-11-12T07:59:55;22.67;;;11.32;;
38940;SDS011;43236;47.208;7.518;2022-11-12T08:02:42;19.92;;;11.35;;
38940;SDS011;43236;47.208;7.518;2022-11-12T08:05:29;19.67;;;10.57;;
38940;SDS011;43236;47.208;7.518;2022-11-12T08:08:16;21.75;;;11.85;;
38940;SDS011;43236;47.208;7.518;2022-11-12T08:11:04;23.65;;;10.90;;
38940;SDS011;43236;47.208;7.518;2022-11-12T08:13:51;25.67;;;13.27;;
38940;SDS011;43236;47.208;7.518;2022-11-12T08:16:39;19.13;;;10.90;;
38940;SDS011;43236;47.208;7.518;2022-11-12T08:19:26;20.38;;;9.32;;
38940;SDS011;43236;47.208;7.518;2022-11-12T08:22:13;19.63;;;10.30;;
38940;SDS011;43236;47.208;7.518;2022-11-12T08:25:01;18.17;;;10.57;;
38940;SDS011;43236;47.208;7.518;2022-11-12T08:27:48;20.42;;;10.32;;
38940;SDS011;43236;47.208;7.518;2022-11-12T08:30:35;21.45;;;11.23;;
38940;SDS011;43236;47.208;7.518;2022-11-12T08:33:23;22.27;;;10.60;;
38940;SDS011;43236;47.208;7.518;2022-11-12T08:36:11;21.95;;;11.35;;
38940;SDS011;43236;47.208;7.518;2022-11-12T08:39:02;19.45;;;10.23;;
38940;SDS011;43236;47.208;7.518;2022-11-12T08:41:50;20.98;;;11.35;;
38940;SDS011;43236;47.208;7.518;2022-11-12T08:44:37;18.67;;;10.25;;
38940;SDS011;43236;47.208;7.518;2022-11-12T08:47:24;21.17;;;10.07;;
38940;SDS011;43236;47.208;7.518;2022-11-12T08:50:15;17.05;;;9.60;;
38940;SDS011;43236;47.208;7.518;2022-11-12T08:53:02;17.75;;;9.82;;
38940;SDS011;43236;47.208;7.518;2022-11-12T08:55:51;18.70;;;10.40;;
38940;SDS011;43236;47.208;7.518;2022-11-12T08:58:39;18.63;;;10.15;;
38940;SDS011;43236;47.208;7.518;2022-11-12T09:01:26;23.45;;;11.45;;
38940;SDS011;43236;47.208;7.518;2022-11-12T09:04:13;19.45;;;10.18;;
38940;SDS011;43236;47.208;7.518;2022-11-12T09:07:02;18.17;;;10.13;;
38940;SDS011;43236;47.208;7.518;2022-11-12T09:09:49;15.65;;;8.85;;
38940;SDS011;43236;47.208;7.518;2022-11-12T09:12:36;19.65;;;10.32;;
38940;SDS011;43236;47.208;7.518;2022-11-12T09:15:23;18.40;;;10.18;;
38940;SDS011;43236;47.208;7.518;2022-11-12T09:18:12;22.88;;;10.25;;
38940;SDS011;43236;47.208;7.518;2022-11-12T09:21:03;22.88;;;10.10;;
38940;SDS011;43236;47.208;7.518;2022-11-12T09:23:54;19.88;;;8.40;;
38940;SDS011;43236;47.208;7.518;2022-11-12T09:26:41;17.38;;;9.63;;
38940;SDS011;43236;47.208;7.518;2022-11-12T09:29:28;20.50;;;9.65;;
38940;SDS011;43236;47.208;7.518;2022-11-12T09:32:15;20.77;;;10.23;;
38940;SDS011;43236;47.208;7.518;2022-11-12T09:35:02;19.10;;;9.65;;
38940;SDS011;43236;47.208;7.518;2022-11-12T09:37:50;17.55;;;9.50;;
38940;SDS011;43236;47.208;7.518;2022-11-12T09:40:45;20.80;;;9.75;;
38940;SDS011;43236;47.208;7.518;2022-11-12T09:43:51;16.67;;;8.75;;
38940;SDS011;43236;47.208;7.518;2022-11-12T09:46:40;17.70;;;9.50;;
38940;SDS011;43236;47.208;7.518;2022-11-12T09:49:32;18.67;;;9.52;;
38940;SDS011;43236;47.208;7.518;2022-11-12T09:52:22;19.83;;;9.60;;
38940;SDS011;43236;47.208;7.518;2022-11-12T09:55:14;21.45;;;10.13;;
38940;SDS011;43236;47.208;7.518;2022-11-12T09:58:09;18.80;;;9.80;;
38940;SDS011;43236;47.208;7.518;2022-11-12T10:00:57;21.77;;;10.77;;
38940;SDS011;43236;47.208;7.518;2022-11-12T10:03:51;19.63;;;9.88;;
38940;SDS011;43236;47.208;7.518;2022-11-12T10:06:46;18.73;;;10.23;;
38940;SDS011;43236;47.208;7.518;2022-11-12T10:09:42;20.15;;;10.70;;
38940;SDS011;43236;47.208;7.518;2022-11-12T10:12:42;19.55;;;10.88;;
38940;SDS011;43236;47.208;7.518;2022-11-12T10:15:49;19.77;;;10.98;;
38940;SDS011;43236;47.208;7.518;2022-11-12T10:19:19;19.73;;;10.70;;
38940;SDS011;43236;47.208;7.518;2022-11-12T10:22:17;17.73;;;9.77;;
38940;SDS011;43236;47.208;7.518;2022-11-12T10:25:15;20.05;;;10.38;;
38940;SDS011;43236;47.208;7.518;2022-11-12T10:28:07;21.83;;;10.70;;
38940;SDS011;43236;47.208;7.518;2022-11-12T10:31:04;16.88;;;9.77;;
38940;SDS011;43236;47.208;7.518;2022-11-12T10:34:09;23.75;;;10.75;;
38940;SDS011;43236;47.208;7.518;2022-11-12T10:37:01;21.42;;;10.27;;
38940;SDS011;43236;47.208;7.518;2022-11-12T10:39:51;16.52;;;9.43;;
38940;SDS011;43236;47.208;7.518;2022-11-12T10:42:54;18.45;;;10.00;;
38940;SDS011;43236;47.208;7.518;2022-11-12T10:45:43;19.38;;;9.38;;
38940;SDS011;43236;47.208;7.518;2022-11-12T10:48:33;20.00;;;9.73;;
38940;SDS011;43236;47.208;7.518;2022-11-12T10:51:25;19.27;;;9.70;;
38940;SDS011;43236;47.208;7.518;2022-11-12T10:54:27;17.75;;;9.77;;
38940;SDS011;43236;47.208;7.518;2022-11-12T10:57:19;20.33;;;10.45;;
38940;SDS011;43236;47.208;7.518;2022-11-12T11:00:13;21.38;;;10.45;;
38940;SDS011;43236;47.208;7.518;2022-11-12T11:03:05;19.13;;;10.30;;
38940;SDS011;43236;47.208;7.518;2022-11-12T11:06:02;20.40;;;10.18;;
38940;SDS011;43236;47.208;7.518;2022-11-12T11:08:52;17.98;;;10.20;;
38940;SDS011;43236;47.208;7.518;2022-11-12T11:11:53;20.77;;;10.35;;
38940;SDS011;43236;47.208;7.518;2022-11-12T11:14:40;20.88;;;10.55;;
38940;SDS011;43236;47.208;7.518;2022-11-12T11:17:28;20.25;;;10.40;;
38940;SDS011;43236;47.208;7.518;2022-11-12T11:20:17;21.45;;;10.90;;
38940;SDS011;43236;47.208;7.518;2022-11-12T11:23:11;20.73;;;10.77;;
38940;SDS011;43236;47.208;7.518;2022-11-12T11:26:06;20.15;;;10.48;;
38940;SDS011;43236;47.208;7.518;2022-11-12T11:29:12;20.58;;;10.85;;
38940;SDS011;43236;47.208;7.518;2022-11-12T11:32:15;22.38;;;11.20;;
38940;SDS011;43236;47.208;7.518;2022-11-12T11:35:13;22.05;;;11.50;;
38940;SDS011;43236;47.208;7.518;2022-11-12T11:38:13;22.23;;;11.40;;
38940;SDS011;43236;47.208;7.518;2022-11-12T11:41:10;19.02;;;10.32;;
38940;SDS011;43236;47.208;7.518;2022-11-12T11:44:18;21.80;;;11.73;;
38940;SDS011;43236;47.208;7.518;2022-11-12T11:47:15;26.63;;;11.38;;
38940;SDS011;43236;47.208;7.518;2022-11-12T11:50:16;22.50;;;11.40;;
38940;SDS011;43236;47.208;7.518;2022-11-12T11:53:17;21.63;;;11.38;;
38940;SDS011;43236;47.208;7.518;2022-11-12T11:56:10;21.05;;;10.75;;
38940;SDS011;43236;47.208;7.518;2022-11-12T11:59:06;24.50;;;11.52;;
38940;SDS011;43236;47.208;7.518;2022-11-12T12:02:16;20.25;;;10.43;;
38940;SDS011;43236;47.208;7.518;2022-11-12T12:05:16;24.90;;;12.10;;
38940;SDS011;43236;47.208;7.518;2022-11-12T12:08:17;23.58;;;12.20;;
38940;SDS011;43236;47.208;7.518;2022-11-12T12:11:11;22.95;;;11.68;;
38940;SDS011;43236;47.208;7.518;2022-11-12T12:14:08;21.02;;;10.65;;
38940;SDS011;43236;47.208;7.518;2022-11-12T12:17:14;23.83;;;11.32;;
38940;SDS011;43236;47.208;7.518;2022-11-12T12:20:12;20.45;;;10.48;;
38940;SDS011;43236;47.208;7.518;2022-11-12T12:23:05;18.50;;;9.15;;
38940;SDS011;43236;47.208;7.518;2022-11-12T12:26:04;18.10;;;9.48;;
38940;SDS011;43236;47.208;7.518;2022-11-12T12:28:57;23.00;;;10.10;;
38940;SDS011;43236;47.208;7.518;2022-11-12T12:31:51;21.52;;;10.75;;
38940;SDS011;43236;47.208;7.518;2022-11-12T12:34:44;19.33;;;10.40;;
38940;SDS011;43236;47.208;7.518;2022-11-12T12:37:34;21.55;;;10.40;;
38940;SDS011;43236;47.208;7.518;2022-11-12T12:40:27;19.00;;;10.18;;
38940;SDS011;43236;47.208;7.518;2022-11-12T12:43:21;17.35;;;9.07;;
38940;SDS011;43236;47.208;7.518;2022-11-12T12:46:13;18.33;;;9.85;;
38940;SDS011;43236;47.208;7.518;2022-11-12T12:49:02;19.70;;;8.98;;
38940;SDS011;43236;47.208;7.518;2022-11-12T12:51:51;18.02;;;9.20;;
38940;SDS011;43236;47.208;7.518;2022-11-12T12:54:53;17.98;;;9.43;;
38940;SDS011;43236;47.208;7.518;2022-11-12T12:57:41;17.48;;;9.02;;
38940;SDS011;43236;47.208;7.518;2022-11-12T13:00:35;20.00;;;9.75;;
38940;SDS011;43236;47.208;7.518;2022-11-12T13:06:33;24.02;;;9.73;;
38940;SDS011;43236;47.208;7.518;2022-11-12T13:09:23;20.73;;;10.35;;
38940;SDS011;43236;47.208;7.518;2022-11-12T13:12:14;20.42;;;10.45;;
38940;SDS011;43236;47.208;7.518;2022-11-12T13:15:09;26.23;;;10.88;;
38940;SDS011;43236;47.208;7.518;2022-11-12T13:18:00;20.10;;;9.88;;
38940;SDS011;43236;47.208;7.518;2022-11-12T13:23:58;20.33;;;10.20;;
38940;SDS011;43236;47.208;7.518;2022-11-12T13:26:55;19.90;;;10.93;;
38940;SDS011;43236;47.208;7.518;2022-11-12T13:29:44;17.85;;;10.05;;
38940;SDS011;43236;47.208;7.518;2022-11-12T13:32:33;18.55;;;9.75;;
38940;SDS011;43236;47.208;7.518;2022-11-12T13:35:28;18.90;;;10.25;;
38940;SDS011;43236;47.208;7.518;2022-11-12T13:38:18;18.40;;;9.65;;
38940;SDS011;43236;47.208;7.518;2022-11-12T13:41:06;17.02;;;8.90;;
38940;SDS011;43236;47.208;7.518;2022-11-12T13:44:02;20.63;;;9.43;;
38940;SDS011;43236;47.208;7.518;2022-11-12T13:46:51;18.48;;;9.93;;
38940;SDS011;43236;47.208;7.518;2022-11-12T13:49:40;19.27;;;9.65;;
38940;SDS011;43236;47.208;7.518;2022-11-12T13:52:30;15.93;;;8.73;;
38940;SDS011;43236;47.208;7.518;2022-11-12T13:55:19;17.98;;;9.10;;
38940;SDS011;43236;47.208;7.518;2022-11-12T13:58:15;17.60;;;9.70;;
38940;SDS011;43236;47.208;7.518;2022-11-12T14:01:05;17.30;;;9.32;;
38940;SDS011;43236;47.208;7.518;2022-11-12T14:03:53;17.00;;;9.35;;
38940;SDS011;43236;47.208;7.518;2022-11-12T14:06:40;22.85;;;10.15;;
38940;SDS011;43236;47.208;7.518;2022-11-12T14:09:42;21.05;;;10.15;;
38940;SDS011;43236;47.208;7.518;2022-11-12T14:12:44;17.15;;;9.40;;
38940;SDS011;43236;47.208;7.518;2022-11-12T14:15:52;20.17;;;10.43;;
38940;SDS011;43236;47.208;7.518;2022-11-12T14:21:57;15.27;;;8.57;;
38940;SDS011;43236;47.208;7.518;2022-11-12T14:24:47;16.48;;;8.38;;
38940;SDS011;43236;47.208;7.518;2022-11-12T14:27:39;15.60;;;7.97;;
38940;SDS011;43236;47.208;7.518;2022-11-12T14:30:27;16.27;;;9.13;;
38940;SDS011;43236;47.208;7.518;2022-11-12T14:33:17;18.08;;;9.95;;
38940;SDS011;43236;47.208;7.518;2022-11-12T14:36:09;20.23;;;10.30;;
38940;SDS011;43236;47.208;7.518;2022-11-12T14:38:58;25.13;;;11.48;;
38940;SDS011;43236;47.208;7.518;2022-11-12T14:41:47;21.85;;;11.38;;
38940;SDS011;43236;47.208;7.518;2022-11-12T14:44:35;19.45;;;10.45;;
38940;SDS011;43236;47.208;7.518;2022-11-12T14:47:23;23.15;;;11.40;;
38940;SDS011;43236;47.208;7.518;2022-11-12T14:50:12;24.02;;;12.23;;
38940;SDS011;43236;47.208;7.518;2022-11-12T14:53:03;22.70;;;11.13;;
38940;SDS011;43236;47.208;7.518;2022-11-12T14:55:53;20.45;;;11.52;;
38940;SDS011;43236;47.208;7.518;2022-11-12T14:58:43;22.92;;;12.00;;
38940;SDS011;43236;47.208;7.518;2022-11-12T15:01:31;24.98;;;11.98;;
38940;SDS011;43236;47.208;7.518;2022-11-12T15:04:22;23.42;;;11.90;;
38940;SDS011;43236;47.208;7.518;2022-11-12T15:07:21;25.38;;;11.70;;
38940;SDS011;43236;47.208;7.518;2022-11-12T15:10:29;25.98;;;11.70;;
38940;SDS011;43236;47.208;7.518;2022-11-12T15:13:19;21.42;;;11.05;;
38940;SDS011;43236;47.208;7.518;2022-11-12T15:16:10;20.55;;;11.38;;
38940;SDS011;43236;47.208;7.518;2022-11-12T15:19:05;26.05;;;12.20;;
38940;SDS011;43236;47.208;7.518;2022-11-12T15:22:05;22.92;;;12.05;;
38940;SDS011;43236;47.208;7.518;2022-11-12T15:25:10;23.48;;;12.27;;
38940;SDS011;43236;47.208;7.518;2022-11-12T15:28:10;24.92;;;12.50;;
38940;SDS011;43236;47.208;7.518;2022-11-12T15:30:59;29.15;;;14.60;;
38940;SDS011;43236;47.208;7.518;2022-11-12T15:33:49;29.30;;;13.77;;
38940;SDS011;43236;47.208;7.518;2022-11-12T15:36:36;26.35;;;13.07;;
38940;SDS011;43236;47.208;7.518;2022-11-12T15:39:27;37.15;;;16.73;;
38940;SDS011;43236;47.208;7.518;2022-11-12T15:42:15;39.83;;;18.10;;
38940;SDS011;43236;47.208;7.518;2022-11-12T15:45:08;43.47;;;19.60;;
38940;SDS011;43236;47.208;7.518;2022-11-12T15:48:00;48.47;;;22.35;;
38940;SDS011;43236;47.208;7.518;2022-11-12T15:50:48;53.85;;;23.65;;
38940;SDS011;43236;47.208;7.518;2022-11-12T15:53:35;56.88;;;23.55;;
38940;SDS011;43236;47.208;7.518;2022-11-12T15:56:23;70.00;;;27.38;;
38940;SDS011;43236;47.208;7.518;2022-11-12T15:59:10;63.58;;;27.85;;
38940;SDS011;43236;47.208;7.518;2022-11-12T16:02:01;68.60;;;28.95;;
38940;SDS011;43236;47.208;7.518;2022-11-12T16:04:48;69.43;;;28.17;;
38940;SDS011;43236;47.208;7.518;2022-11-12T16:07:37;67.07;;;28.25;;
38940;SDS011;43236;47.208;7.518;2022-11-12T16:10:24;70.13;;;27.60;;
38940;SDS011;43236;47.208;7.518;2022-11-12T16:13:13;66.88;;;28.25;;
38940;SDS011;43236;47.208;7.518;2022-11-12T16:16:02;53.70;;;23.02;;
38940;SDS011;43236;47.208;7.518;2022-11-12T16:18:52;53.80;;;24.02;;
38940;SDS011;43236;47.208;7.518;2022-11-12T16:21:39;46.53;;;21.45;;
38940;SDS011;43236;47.208;7.518;2022-11-12T16:24:28;42.33;;;19.08;;
38940;SDS011;43236;47.208;7.518;2022-11-12T16:27:18;39.97;;;17.77;;
38940;SDS011;43236;47.208;7.518;2022-11-12T16:30:12;35.42;;;15.40;;
38940;SDS011;43236;47.208;7.518;2022-11-12T16:33:00;32.08;;;14.98;;
38940;SDS011;43236;47.208;7.518;2022-11-12T16:35:47;33.90;;;15.43;;
38940;SDS011;43236;47.208;7.518;2022-11-12T16:38:35;31.98;;;15.43;;
38940;SDS011;43236;47.208;7.518;2022-11-12T16:41:23;32.78;;;15.40;;
38940;SDS011;43236;47.208;7.518;2022-11-12T16:44:10;26.27;;;13.40;;
38940;SDS011;43236;47.208;7.518;2022-11-12T16:46:57;26.92;;;12.93;;
38940;SDS011;43236;47.208;7.518;2022-11-12T16:49:47;29.23;;;14.57;;
38940;SDS011;43236;47.208;7.518;2022-11-12T16:52:35;27.00;;;13.77;;
38940;SDS011;43236;47.208;7.518;2022-11-12T16:55:22;30.77;;;14.63;;
38940;SDS011;43236;47.208;7.518;2022-11-12T16:58:12;25.15;;;12.35;;